Terminal Aerodrome Forecast
Issued by NWS Austin/San Antonio, TX

Home | Current Version | Previous Version | Text Only | Print | Product List | Glossary On
Versions: 1 2 3 4 5 6 7 8 9 10 11 12 13 14 15 16 17 18 19 20 21 22 23 24 25 26 27 28
000
FTUS44 KEWX 042337
TAFSAT
TAF
KSAT 042337Z 0500/0606 01010KT P6SM BKN010 OVC040
      TEMPO 0500/0504 -SHRA
     FM050400 01010KT P6SM -SHRA OVC008
     FM052000 27005KT P6SM SCT010 OVC030
     FM060000 27005KT P6SM SCT050=

USA.gov is the U.S. government's official web portal to all federal, state and local government web resources and services.